Time;durP1;ratioP1;P1;durP2;ratioP2;P2;SDS_P1;SDS_P2;PMS_P1;PMS_P2;Temp;Humidity;BMP_temperature;BMP_pressure;BME280_temperature;BME280_humidity;BME280_pressure;Samples;Min_cycle;Max_cycle;Signal;HPM_P1;HPM_P2
2023/08/10 01:04:01;;;;;;;8.40;4.70;;;;;;;19.49;67.67;99577.11;80250;1298;3013677;-72
2023/08/10 01:06:51;;;;;;;9.10;4.60;;;;;;;19.32;67.96;99577.48;79210;1301;3014494;-71
2023/08/10 01:09:25;;;;;;;7.50;4.40;;;;;;;19.12;68.58;99576.38;77928;1305;3052178;-74
2023/08/10 01:12:20;;;;;;;8.00;4.80;;;;;;;18.88;69.55;99574.18;78659;1308;3011836;-72
2023/08/10 01:14:52;;;;;;;8.80;4.90;;;;;;;18.74;69.95;99574.91;77885;1308;3053646;-72
2023/08/10 01:17:23;;;;;;;7.30;4.50;;;;;;;18.60;70.43;99575.86;77181;1299;3048513;-71
2023/08/10 01:19:50;;;;;;;7.10;4.60;;;;;;;18.47;71.24;99575.79;78077;1304;3051373;-72
2023/08/10 01:22:21;;;;;;;9.90;4.70;;;;;;;18.34;71.57;99574.02;79308;1299;3013675;-73
2023/08/10 01:25:01;;;;;;;9.00;4.70;;;;;;;18.29;71.68;99571.63;78159;1299;3053664;-72
2023/08/10 01:27:29;;;;;;;8.40;4.50;;;;;;;18.26;71.96;99573.98;78240;1301;3050968;-75
2023/08/10 01:29:56;;;;;;;5.00;3.40;;;;;;;18.20;72.16;99576.16;79203;1304;3013019;-73
2023/08/10 01:32:23;;;;;;;7.70;3.40;;;;;;;18.70;71.40;99574.38;79263;1299;3013545;-75
2023/08/10 01:34:51;;;;;;;10.40;3.70;;;;;;;19.26;69.40;99576.46;78191;1301;3051320;-73
2023/08/10 01:37:17;;;;;;;7.40;5.00;;;;;;;19.30;68.77;99575.05;79440;1299;3019075;-73
2023/08/10 01:39:44;;;;;;;11.30;5.60;;;;;;;19.16;68.87;99581.48;79397;1301;3012951;-74
2023/08/10 01:42:12;;;;;;;10.60;5.30;;;;;;;19.01;69.24;99579.71;78162;1298;3027244;-74
2023/08/10 01:44:38;;;;;;;9.40;5.90;;;;;;;18.82;69.97;99580.05;79312;1301;3012885;-74
2023/08/10 01:47:07;;;;;;;9.10;6.10;;;;;;;18.71;70.20;99577.52;79386;1296;3011566;-73
2023/08/10 01:49:35;;;;;;;8.30;6.00;;;;;;;18.55;70.56;99580.02;78211;1297;3050853;-72
2023/08/10 01:52:03;;;;;;;9.60;6.30;;;;;;;18.42;71.11;99583.85;79317;1301;3015168;-74
2023/08/10 01:54:31;;;;;;;9.10;5.60;;;;;;;18.30;71.66;99581.59;79430;1296;3012789;-74
2023/08/10 01:56:59;;;;;;;10.10;5.90;;;;;;;18.22;71.85;99581.46;78172;1300;3051490;-73
2023/08/10 01:59:26;;;;;;;9.00;6.00;;;;;;;18.14;72.16;99575.83;79412;1301;3013032;-74
2023/08/10 02:01:52;;;;;;;8.80;4.00;;;;;;;18.08;72.54;99576.88;79521;1296;3011836;-75
2023/08/10 02:04:20;;;;;;;6.40;3.70;;;;;;;18.56;71.59;99581.91;78234;1297;3025261;-74
2023/08/10 02:06:47;;;;;;;6.30;4.40;;;;;;;19.07;69.81;99578.82;79459;1295;3013322;-72
2023/08/10 02:09:14;;;;;;;6.80;4.80;;;;;;;19.11;69.25;99575.73;79368;1298;3011685;-74
2023/08/10 02:11:41;;;;;;;8.40;5.40;;;;;;;18.85;69.68;99579.92;78202;1301;3026611;-72
2023/08/10 02:14:08;;;;;;;6.70;5.10;;;;;;;18.75;70.03;99581.95;79557;1301;3013521;-72
2023/08/10 02:16:35;;;;;;;9.40;5.80;;;;;;;18.61;70.70;99581.84;79363;1297;3013439;-73
2023/08/10 02:19:03;;;;;;;8.30;5.30;;;;;;;18.52;70.68;99588.10;78275;1298;3026136;-73
2023/08/10 02:21:31;;;;;;;9.40;5.70;;;;;;;18.36;71.28;99588.84;79431;1298;3013543;-77
2023/08/10 02:23:57;;;;;;;8.80;6.10;;;;;;;18.19;71.83;99584.75;79452;1301;3013196;-71
2023/08/10 02:26:25;;;;;;;13.40;6.60;;;;;;;18.08;72.56;99584.83;78481;1300;3051136;-67
2023/08/10 02:28:51;;;;;;;10.70;7.40;;;;;;;18.03;72.38;99578.39;79410;1301;3011691;-68
2023/08/10 02:31:18;;;;;;;7.60;4.50;;;;;;;17.96;72.90;99581.70;79407;1301;3011662;-68
2023/08/10 02:33:46;;;;;;;7.70;4.80;;;;;;;18.45;72.00;99582.17;78182;1300;3026519;-66
2023/08/10 02:36:12;;;;;;;8.10;5.80;;;;;;;18.98;70.22;99578.41;79323;1295;3013119;-67
2023/08/10 02:38:39;;;;;;;10.00;6.20;;;;;;;19.09;69.52;99577.73;79420;1295;3012259;-66
2023/08/10 02:41:06;;;;;;;9.10;6.20;;;;;;;18.99;69.62;99582.61;78221;1301;3026790;-68
2023/08/10 02:43:33;;;;;;;9.40;6.20;;;;;;;18.89;69.30;99585.45;79447;1301;3013223;-70
2023/08/10 02:46:00;;;;;;;10.80;6.20;;;;;;;18.69;70.22;99584.75;79530;1301;3013178;-70
2023/08/10 02:48:27;;;;;;;9.40;5.40;;;;;;;18.53;70.96;99583.95;78261;1301;3026522;-68
2023/08/10 02:50:54;;;;;;;9.10;5.50;;;;;;;18.46;71.04;99577.20;79568;1295;3013230;-67
2023/08/10 02:53:20;;;;;;;8.00;4.30;;;;;;;18.34;71.59;99574.14;79580;1300;3011593;-69
2023/08/10 02:55:48;;;;;;;6.40;3.70;;;;;;;18.26;72.08;99577.75;78263;1300;3026831;-68
2023/08/10 02:58:15;;;;;;;5.50;3.60;;;;;;;18.16;72.56;99579.34;79525;1298;3013458;-68
2023/08/10 03:00:41;;;;;;;4.20;2.30;;;;;;;18.11;72.76;99576.38;79447;1295;3011780;-69
2023/08/10 03:03:09;;;;;;;8.30;3.00;;;;;;;18.46;72.28;99576.96;78180;1296;3027606;-67
2023/08/10 03:05:35;;;;;;;4.70;2.60;;;;;;;18.95;70.48;99576.70;79448;1295;3014292;-69
2023/08/10 03:08:02;;;;;;;7.90;2.80;;;;;;;19.05;69.68;99567.99;79559;1295;3011446;-67
2023/08/10 03:10:31;;;;;;;7.50;3.10;;;;;;;19.00;69.64;99572.41;78311;1301;3050947;-68
2023/08/10 03:12:58;;;;;;;4.40;2.90;;;;;;;18.82;70.15;99577.52;79458;1301;3013818;-69
2023/08/10 03:15:25;;;;;;;5.90;2.70;;;;;;;18.72;70.43;99576.54;79510;1295;3011659;-68
2023/08/10 03:17:54;;;;;;;5.20;2.90;;;;;;;18.56;71.16;99575.52;78263;1295;3026750;-69
2023/08/10 03:20:21;;;;;;;3.60;2.30;;;;;;;18.39;71.71;99571.54;79551;1295;3013276;-69
2023/08/10 03:22:48;;;;;;;5.10;2.10;;;;;;;18.32;72.07;99569.78;79422;1296;3011357;-69
2023/08/10 03:25:15;;;;;;;4.60;2.40;;;;;;;18.21;72.64;99571.27;78203;1298;3049673;-68
2023/08/10 03:27:42;;;;;;;4.10;2.20;;;;;;;18.20;72.56;99569.81;79613;1298;3013445;-70
2023/08/10 03:30:14;;;;;;;4.10;2.00;;;;;;;18.15;72.60;99563.15;78289;1299;3070530;-67
2023/08/10 03:32:41;;;;;;;7.30;1.80;;;;;;;18.18;72.40;99563.34;79635;1296;3012939;-69
2023/08/10 03:35:08;;;;;;;5.30;2.00;;;;;;;18.74;71.44;99559.27;79593;1293;3011453;-70
2023/08/10 03:37:36;;;;;;;2.40;1.70;;;;;;;19.18;69.55;99551.55;78408;1295;3052809;-69
2023/08/10 03:40:03;;;;;;;5.60;2.00;;;;;;;19.18;68.96;99553.48;79475;1298;3013510;-72
2023/08/10 03:42:30;;;;;;;6.40;2.20;;;;;;;19.20;68.91;99555.77;79416;1301;3012194;-68
2023/08/10 03:44:58;;;;;;;7.30;2.50;;;;;;;18.94;69.34;99548.97;78326;1298;3068345;-68
2023/08/10 03:47:25;;;;;;;4.00;2.80;;;;;;;18.86;69.59;99541.20;79498;1295;3018730;-69
2023/08/10 03:49:52;;;;;;;6.20;2.60;;;;;;;18.70;70.46;99538.22;79575;1295;3013284;-67
2023/08/10 03:52:20;;;;;;;3.80;2.30;;;;;;;18.64;70.34;99537.05;78364;1298;3026048;-70
2023/08/10 03:54:47;;;;;;;4.70;2.40;;;;;;;18.51;71.26;99538.95;79709;1297;3011683;-66
2023/08/10 03:57:14;;;;;;;4.70;2.30;;;;;;;18.48;71.03;99541.82;79500;1295;3011769;-67
2023/08/10 03:59:41;;;;;;;5.20;2.30;;;;;;;18.47;71.36;99538.17;78335;1300;3026885;-66
2023/08/10 04:02:08;;;;;;;4.10;2.50;;;;;;;18.34;71.42;99538.14;79638;1295;3013389;-69
2023/08/10 04:04:35;;;;;;;3.10;2.00;;;;;;;18.36;71.76;99535.52;79508;1298;3011529;-68
2023/08/10 04:07:04;;;;;;;7.60;2.50;;;;;;;18.99;70.56;99539.44;78217;1296;3052665;-68
2023/08/10 04:09:31;;;;;;;6.20;2.20;;;;;;;19.46;68.53;99539.11;79482;1297;3013868;-70
2023/08/10 04:11:57;;;;;;;3.90;2.50;;;;;;;19.63;67.76;99540.42;79494;1298;3011783;-72
2023/08/10 04:14:25;;;;;;;3.70;2.50;;;;;;;19.53;67.48;99536.13;78316;1296;3029743;-69
2023/08/10 04:16:52;;;;;;;4.00;3.00;;;;;;;19.26;68.36;99531.75;79615;1301;3013309;-67
2023/08/10 04:19:19;;;;;;;6.30;3.20;;;;;;;19.07;68.89;99537.86;79570;1294;3012856;-69
2023/08/10 04:21:46;;;;;;;8.90;3.00;;;;;;;19.02;69.12;99543.06;78505;1296;3052858;-68
2023/08/10 04:24:13;;;;;;;7.00;2.80;;;;;;;18.97;69.42;99541.38;79577;1295;3013607;-70
2023/08/10 04:26:40;;;;;;;6.20;2.90;;;;;;;18.92;69.43;99542.61;79566;1295;3011827;-70
2023/08/10 04:29:07;;;;;;;4.20;2.80;;;;;;;18.89;69.52;99544.25;78599;1295;3027166;-69
2023/08/10 04:31:34;;;;;;;5.10;2.90;;;;;;;18.85;69.96;99543.62;79534;1298;3013598;-69
2023/08/10 04:34:01;;;;;;;7.30;2.60;;;;;;;18.89;69.81;99548.17;79644;1295;3013797;-69
2023/08/10 04:36:29;;;;;;;7.60;2.80;;;;;;;18.81;70.01;99551.00;78420;1296;3025586;-71
2023/08/10 04:38:55;;;;;;;7.20;2.60;;;;;;;18.85;70.05;99552.42;79532;1295;3013795;-68
2023/08/10 04:41:23;;;;;;;6.00;2.30;;;;;;;18.94;69.87;99553.07;79534;1295;3011973;-65
2023/08/10 04:43:51;;;;;;;5.30;2.80;;;;;;;18.98;69.71;99554.32;78246;1299;3068700;-69
2023/08/10 04:46:17;;;;;;;2.70;2.00;;;;;;;19.08;69.34;99560.08;79529;1295;3012962;-67
2023/08/10 04:48:44;;;;;;;5.60;2.30;;;;;;;19.75;67.97;99562.36;79521;1298;3011672;-68
2023/08/10 04:51:11;;;;;;;9.20;2.40;;;;;;;20.38;65.34;99563.67;78292;1298;3026380;-68
2023/08/10 04:53:38;;;;;;;6.40;2.20;;;;;;;20.58;64.54;99564.54;79574;1298;3018653;-64
2023/08/10 04:56:04;;;;;;;4.30;2.30;;;;;;;20.61;64.25;99561.60;79675;1298;3011601;-70
2023/08/10 04:58:32;;;;;;;3.30;2.00;;;;;;;20.55;64.06;99559.31;78316;1298;3028199;-69
2023/08/10 05:00:59;;;;;;;7.00;2.40;;;;;;;20.47;63.92;99561.69;79602;1298;3012937;-68
2023/08/10 05:03:26;;;;;;;5.00;2.40;;;;;;;20.44;64.18;99557.75;79510;1298;3012974;-67
2023/08/10 05:05:53;;;;;;;5.60;2.90;;;;;;;20.36;64.37;99555.33;78415;1297;3026725;-67
2023/08/10 05:08:21;;;;;;;4.10;2.60;;;;;;;20.33;64.17;99552.10;79518;1297;3013728;-68
2023/08/10 05:10:49;;;;;;;7.80;2.60;;;;;;;20.31;64.01;99557.65;79688;1298;3011653;-67
2023/08/10 05:13:17;;;;;;;4.20;2.80;;;;;;;20.34;63.76;99555.77;78300;1295;3068444;-67
2023/08/10 05:15:44;;;;;;;12.40;2.70;;;;;;;20.36;63.85;99552.13;79571;1295;3019190;-68
2023/08/10 05:18:11;;;;;;;4.50;2.70;;;;;;;20.36;63.55;99552.16;79824;1298;3011637;-68
2023/08/10 05:20:38;;;;;;;7.20;2.80;;;;;;;20.39;63.59;99552.41;78425;1298;3026357;-67
2023/08/10 05:23:05;;;;;;;10.30;2.30;;;;;;;20.39;63.43;99553.63;79609;1297;3011641;-67
2023/08/10 05:25:31;;;;;;;5.40;2.80;;;;;;;20.45;63.52;99557.63;79607;1296;3012767;-71
2023/08/10 05:27:59;;;;;;;7.70;2.90;;;;;;;20.48;63.34;99549.65;78469;1298;3026039;-67
2023/08/10 05:30:26;;;;;;;9.50;2.70;;;;;;;20.54;63.14;99550.73;79569;1296;3018721;-69
2023/08/10 05:32:52;;;;;;;6.70;3.00;;;;;;;20.56;63.32;99540.52;79585;1295;3011491;-67
2023/08/10 05:35:21;;;;;;;7.70;2.70;;;;;;;20.58;63.26;99534.29;78391;1296;3029345;-74
2023/08/10 05:37:47;;;;;;;4.80;2.90;;;;;;;20.66;63.04;99520.15;79488;1299;3012847;-73
2023/08/10 05:40:14;;;;;;;5.40;3.00;;;;;;;20.73;63.04;99514.29;79676;1295;3011594;-72
2023/08/10 05:42:42;;;;;;;9.60;3.30;;;;;;;20.80;62.58;99507.71;78349;1298;3068320;-73
2023/08/10 05:45:10;;;;;;;8.70;2.90;;;;;;;20.85;62.29;99500.38;79570;1296;3019137;-72
2023/08/10 05:47:42;;;;;;;10.10;3.40;;;;;;;20.93;62.04;99497.67;78287;1296;3050524;-72
2023/08/10 05:50:09;;;;;;;6.90;2.60;;;;;;;20.99;62.04;99487.34;79586;1296;3014402;-66
2023/08/10 05:52:35;;;;;;;7.80;3.60;;;;;;;21.03;61.86;99486.44;79669;1296;3013844;-70
2023/08/10 05:55:05;;;;;;;9.40;3.80;;;;;;;21.08;61.86;99480.89;78329;1298;3052989;-71
2023/08/10 05:57:32;;;;;;;9.40;4.30;;;;;;;21.13;61.50;99478.06;79862;1296;3013267;-72
2023/08/10 05:59:58;;;;;;;10.20;4.10;;;;;;;21.22;61.16;99474.89;79601;1296;3013099;-72
2023/08/10 06:02:26;;;;;;;8.20;4.20;;;;;;;21.27;60.96;99471.77;78420;1298;3048571;-73
2023/08/10 06:04:54;;;;;;;9.20;3.50;;;;;;;21.30;60.56;99462.05;79662;1298;3013307;-70
2023/08/10 06:07:20;;;;;;;8.00;3.90;;;;;;;21.32;60.04;99465.94;79648;1298;3012696;-69
2023/08/10 06:09:48;;;;;;;8.90;3.70;;;;;;;21.41;60.30;99466.06;78425;1298;3052070;-72
2023/08/10 06:12:17;;;;;;;7.10;3.70;;;;;;;21.50;59.94;99467.63;79574;1295;3013619;-70
2023/08/10 06:14:46;;;;;;;8.70;2.60;;;;;;;21.58;59.39;99464.48;79101;1296;3011510;-68
2023/08/10 06:17:13;;;;;;;10.90;2.90;;;;;;;21.69;59.30;99465.07;79595;1295;3015812;-71
2023/08/10 06:19:39;;;;;;;7.00;3.10;;;;;;;21.75;59.25;99466.58;79603;1295;3011440;-70
2023/08/10 06:22:07;;;;;;;8.70;3.30;;;;;;;21.84;59.26;99466.04;78328;1298;3028518;-70
2023/08/10 06:24:35;;;;;;;9.00;3.30;;;;;;;21.91;58.92;99471.98;79590;1298;3013443;-69
2023/08/10 06:27:02;;;;;;;6.40;3.50;;;;;;;22.01;58.57;99473.02;79645;1295;3012284;-67
2023/08/10 06:29:30;;;;;;;5.70;3.10;;;;;;;22.06;58.25;99479.45;78313;1300;3052173;-69
2023/08/10 06:31:56;;;;;;;6.40;2.90;;;;;;;22.12;58.28;99475.66;79627;1296;3013322;-71
2023/08/10 06:34:23;;;;;;;4.00;2.70;;;;;;;22.22;58.13;99483.25;79540;1298;3011621;-71
2023/08/10 06:36:52;;;;;;;8.80;2.90;;;;;;;22.29;58.00;99478.59;78342;1296;3026411;-72
2023/08/10 06:39:18;;;;;;;4.60;2.00;;;;;;;22.38;57.64;99482.13;79719;1298;3014100;-69
2023/08/10 06:41:45;;;;;;;6.60;2.10;;;;;;;22.44;57.34;99482.15;79646;1296;3011642;-65
2023/08/10 06:44:13;;;;;;;4.20;2.20;;;;;;;22.51;57.37;99477.29;78280;1301;3051261;-66
2023/08/10 06:46:39;;;;;;;5.30;2.20;;;;;;;22.56;57.36;99480.45;79648;1298;3018793;-69
2023/08/10 06:49:06;;;;;;;7.90;2.40;;;;;;;22.59;57.17;99479.41;79582;1296;3011657;-71
2023/08/10 06:51:35;;;;;;;10.10;2.70;;;;;;;22.69;57.09;99477.64;78408;1296;3051814;-68
2023/08/10 06:54:02;;;;;;;5.30;2.90;;;;;;;22.74;57.35;99478.48;79594;1308;3013326;-68
2023/08/10 06:56:29;;;;;;;8.60;2.20;;;;;;;22.83;57.41;99481.94;79531;1295;3011592;-70
2023/08/10 06:58:57;;;;;;;7.50;2.20;;;;;;;22.98;57.12;99480.87;78217;1295;3026136;-64
2023/08/10 07:01:23;;;;;;;6.70;2.20;;;;;;;23.06;56.65;99486.67;79413;1295;3012933;-69
2023/08/10 07:03:50;;;;;;;5.50;2.10;;;;;;;23.14;56.46;99482.84;79577;1295;3011681;-69
2023/08/10 07:06:18;;;;;;;3.70;2.10;;;;;;;23.13;56.45;99474.16;78410;1298;3026356;-69
2023/08/10 07:08:45;;;;;;;6.20;2.60;;;;;;;23.20;56.38;99481.95;79747;1298;3013259;-68
2023/08/10 07:11:11;;;;;;;5.40;2.20;;;;;;;23.30;56.41;99481.03;79545;1295;3011884;-70
2023/08/10 07:13:41;;;;;;;7.10;2.30;;;;;;;23.32;56.61;99480.95;78350;1297;3026489;-69
2023/08/10 07:16:07;;;;;;;6.20;2.40;;;;;;;23.43;56.46;99484.52;79488;1296;3013108;-68
2023/08/10 07:18:34;;;;;;;10.70;2.40;;;;;;;23.53;56.23;99489.83;79638;1296;3011869;-78
2023/08/10 07:21:02;;;;;;;4.70;2.30;;;;;;;23.64;55.89;99489.44;78432;1298;3049858;-77
2023/08/10 07:23:30;;;;;;;7.30;2.80;;;;;;;23.73;55.65;99493.73;79718;1295;3014763;-76
2023/08/10 07:25:56;;;;;;;6.50;2.40;;;;;;;23.82;55.82;99496.17;79637;1295;3011529;-77
2023/08/10 07:28:25;;;;;;;10.40;2.40;;;;;;;23.81;55.82;99491.58;78547;1296;3051614;-78
2023/08/10 07:30:52;;;;;;;5.20;2.40;;;;;;;23.88;55.61;99487.59;79806;1299;3013019;-77
2023/08/10 07:33:19;;;;;;;10.70;2.70;;;;;;;23.99;55.21;99484.01;79624;1296;3011774;-76
2023/08/10 07:35:47;;;;;;;8.00;2.50;;;;;;;24.08;54.63;99487.91;78350;1295;3048698;-76
2023/08/10 07:38:14;;;;;;;5.70;2.30;;;;;;;24.22;54.59;99488.70;79688;1298;3020951;-78
2023/08/10 07:40:40;;;;;;;6.00;2.50;;;;;;;24.24;54.95;99487.17;79689;1296;3012747;-77
2023/08/10 07:43:09;;;;;;;3.70;2.30;;;;;;;24.35;54.34;99483.73;78347;1300;3026545;-75
2023/08/10 07:45:36;;;;;;;7.80;2.50;;;;;;;24.45;54.25;99476.65;79614;1295;3013616;-77
2023/08/10 07:48:03;;;;;;;8.10;2.30;;;;;;;24.52;54.28;99470.60;79628;1296;3011591;-77
2023/08/10 07:50:31;;;;;;;5.70;2.80;;;;;;;24.63;53.76;99471.73;78558;1298;3051471;-77
2023/08/10 07:52:58;;;;;;;7.60;2.70;;;;;;;24.71;53.79;99469.50;79660;1298;3013731;-77
2023/08/10 07:55:24;;;;;;;6.00;2.60;;;;;;;24.76;53.48;99463.09;79631;1298;3011784;-78
2023/08/10 07:57:53;;;;;;;6.00;2.60;;;;;;;24.83;53.41;99464.05;78511;1299;3026495;-77
2023/08/10 08:00:20;;;;;;;3.50;2.50;;;;;;;24.96;53.03;99461.23;79567;1296;3013633;-81
2023/08/10 08:02:49;;;;;;;7.80;2.80;;;;;;;25.07;53.38;99456.91;79602;1301;3012767;-79
2023/08/10 08:05:17;;;;;;;11.70;2.80;;;;;;;25.14;53.27;99463.12;78362;1302;3050292;-78
2023/08/10 08:07:44;;;;;;;9.30;2.80;;;;;;;25.19;53.38;99461.84;79604;1302;3013298;-78
2023/08/10 08:10:11;;;;;;;9.40;2.60;;;;;;;25.24;52.98;99460.71;79542;1298;3011774;-74
2023/08/10 08:12:39;;;;;;;9.40;2.50;;;;;;;25.24;53.19;99454.64;78471;1301;3026231;-80
2023/08/10 08:15:06;;;;;;;8.30;2.70;;;;;;;25.33;53.15;99448.16;79581;1294;3013416;-80
2023/08/10 08:18:11;;;;;;;6.90;2.80;;;;;;;25.36;52.83;99450.64;79834;1298;3014033;-78
2023/08/10 08:20:39;;;;;;;11.40;3.20;;;;;;;25.40;52.78;99445.65;78422;1298;3050450;-79
2023/08/10 08:23:06;;;;;;;5.30;2.90;;;;;;;25.55;52.67;99451.58;79734;1298;3013225;-78
2023/08/10 08:25:33;;;;;;;8.30;3.10;;;;;;;25.75;52.55;99453.25;79757;1298;3011588;-79
2023/08/10 08:28:01;;;;;;;8.30;2.40;;;;;;;25.91;52.29;99451.01;78407;1299;3050503;-75
2023/08/10 08:30:29;;;;;;;9.80;2.50;;;;;;;25.95;51.98;99449.55;79677;1296;3013101;-78
2023/08/10 08:32:56;;;;;;;3.40;2.60;;;;;;;26.00;51.63;99437.90;79647;1296;3011715;-77
2023/08/10 08:35:25;;;;;;;5.30;2.60;;;;;;;26.10;51.64;99434.66;78355;1298;3049590;-80
2023/08/10 08:37:52;;;;;;;12.10;3.40;;;;;;;26.18;51.05;99424.79;79686;1298;3013328;-78
2023/08/10 08:40:18;;;;;;;9.80;2.90;;;;;;;26.25;51.22;99417.91;79575;1296;3011711;-76
2023/08/10 08:42:47;;;;;;;6.90;3.30;;;;;;;26.35;51.00;99414.13;78250;1299;3051912;-79
2023/08/10 08:45:15;;;;;;;7.20;3.10;;;;;;;26.38;50.92;99414.23;79710;1299;3013778;-80
2023/08/10 08:47:44;;;;;;;6.30;2.70;;;;;;;26.47;50.94;99410.10;79603;1295;3011741;-79
2023/08/10 08:50:14;;;;;;;7.10;2.60;;;;;;;26.62;50.42;99405.09;78280;1301;3050598;-77
2023/08/10 08:52:42;;;;;;;8.90;2.60;;;;;;;26.72;50.18;99401.27;79685;1295;3013397;-77
2023/08/10 08:55:11;;;;;;;5.80;2.80;;;;;;;26.80;49.85;99393.98;79094;1302;3011657;-78
2023/08/10 08:57:38;;;;;;;5.70;2.70;;;;;;;26.82;50.06;99388.21;79610;1299;3013581;-77
2023/08/10 09:00:06;;;;;;;11.00;2.60;;;;;;;26.97;50.03;99389.80;79574;1295;3011944;-78
2023/08/10 09:02:35;;;;;;;7.30;2.70;;;;;;;27.19;49.31;99382.58;78386;1298;3048102;-76
2023/08/10 09:05:02;;;;;;;9.50;2.90;;;;;;;27.33;49.06;99383.27;79761;1301;3012905;-78
2023/08/10 09:07:29;;;;;;;4.70;2.50;;;;;;;27.36;49.24;99385.77;80043;1295;3011479;-78
2023/08/10 09:09:57;;;;;;;5.70;2.80;;;;;;;27.36;49.23;99391.09;78579;1298;3053086;-79
2023/08/10 09:12:27;;;;;;;4.40;2.30;;;;;;;27.23;49.40;99399.67;79817;1298;3019132;-78
2023/08/10 09:15:16;;;;;;;3.50;2.50;;;;;;;27.22;49.43;99398.35;79091;1296;3011609;-76
2023/08/10 09:17:46;;;;;;;5.60;2.70;;;;;;;27.21;49.71;99384.83;78586;1304;3057853;-75
2023/08/10 09:20:26;;;;;;;6.00;2.40;;;;;;;27.27;49.54;99372.05;79575;1295;3013070;-76
2023/08/10 09:22:57;;;;;;;8.90;2.50;;;;;;;27.32;49.57;99359.32;78412;1299;3049661;-77
2023/08/10 09:25:23;;;;;;;3.50;2.20;;;;;;;27.34;49.55;99349.16;79704;1296;3011801;-78
2023/08/10 09:27:52;;;;;;;4.80;2.60;;;;;;;27.27;49.54;99349.99;79098;1301;3013394;-77
2023/08/10 09:30:19;;;;;;;9.40;3.10;;;;;;;27.24;49.91;99349.07;79812;1296;3013150;-72
2023/08/10 09:32:46;;;;;;;3.80;2.40;;;;;;;27.34;50.03;99347.31;79603;1298;3013404;-80
2023/08/10 09:35:15;;;;;;;11.60;2.60;;;;;;;27.59;49.60;99353.20;78379;1298;3028337;-79
2023/08/10 09:37:42;;;;;;;3.30;2.50;;;;;;;27.75;49.14;99355.16;79706;1301;3013157;-79
2023/08/10 09:40:11;;;;;;;5.60;2.70;;;;;;;27.90;48.94;99365.23;79669;1297;3013660;-79
2023/08/10 09:42:41;;;;;;;7.60;2.80;;;;;;;27.93;49.22;99370.16;78319;1297;3052135;-79
2023/08/10 09:45:10;;;;;;;6.80;2.80;;;;;;;28.07;48.70;99382.27;79613;1296;3012964;-80
2023/08/10 09:47:39;;;;;;;8.40;2.90;;;;;;;28.24;48.55;99376.85;78438;1296;3027110;-79
2023/08/10 09:50:13;;;;;;;3.70;2.20;;;;;;;28.45;48.10;99380.71;79617;1296;3013726;-77
2023/08/10 09:52:42;;;;;;;8.50;2.50;;;;;;;28.63;47.49;99378.34;78419;1295;3050170;-77
2023/08/10 09:55:09;;;;;;;6.40;2.50;;;;;;;28.71;47.27;99385.19;79689;1298;3013502;-80
2023/08/10 09:57:40;;;;;;;4.70;2.60;;;;;;;28.71;47.33;99383.10;79653;1294;3011660;-80
2023/08/10 10:00:15;;;;;;;7.10;2.60;;;;;;;28.66;47.70;99381.75;78454;1298;3051928;-78
2023/08/10 10:02:44;;;;;;;8.60;2.90;;;;;;;28.68;47.83;99378.96;78465;1297;3068255;-80
2023/08/10 10:05:11;;;;;;;5.90;2.70;;;;;;;28.63;47.96;99377.63;79685;1295;3012945;-81
2023/08/10 10:07:38;;;;;;;10.10;3.20;;;;;;;28.67;47.96;99378.91;79661;1300;3011430;-83
2023/08/10 10:10:12;;;;;;;4.90;2.80;;;;;;;28.76;47.97;99374.72;78402;1295;3053979;-78
2023/08/10 10:12:38;;;;;;;3.00;2.30;;;;;;;28.82;47.49;99366.87;79766;1296;3011896;-82
2023/08/10 10:15:07;;;;;;;6.20;2.70;;;;;;;28.87;47.51;99356.99;78665;1299;3051456;-81
2023/08/10 10:17:33;;;;;;;5.90;2.30;;;;;;;28.87;47.64;99354.91;79847;1299;3013558;-79
2023/08/10 10:19:59;;;;;;;7.20;2.80;;;;;;;28.85;47.80;99356.21;79558;1297;3011688;-79
2023/08/10 10:22:27;;;;;;;7.70;2.80;;;;;;;28.85;47.85;99355.23;78416;1296;3055019;-77
2023/08/10 10:24:56;;;;;;;8.10;3.00;;;;;;;29.02;47.78;99362.38;79588;1295;3018627;-80
2023/08/10 10:27:22;;;;;;;7.90;3.00;;;;;;;29.20;47.42;99365.77;79466;1296;3011628;-80
2023/08/10 10:29:52;;;;;;;7.00;3.00;;;;;;;29.19;47.11;99361.89;78243;1301;3052611;-79
2023/08/10 10:32:19;;;;;;;11.50;3.10;;;;;;;29.11;47.62;99366.86;79638;1295;3013834;-80
2023/08/10 10:34:47;;;;;;;5.60;2.80;;;;;;;29.16;47.62;99363.20;79591;1296;3011928;-79
2023/08/10 10:37:16;;;;;;;8.80;2.70;;;;;;;29.20;47.76;99356.78;78439;1295;3055586;-82
2023/08/10 10:39:49;;;;;;;11.60;2.90;;;;;;;29.17;47.93;99352.35;79636;1295;3012745;-73
2023/08/10 10:42:19;;;;;;;6.70;2.50;;;;;;;29.20;47.73;99351.70;78571;1298;3049678;-78
2023/08/10 10:45:03;;;;;;;11.40;2.80;;;;;;;29.05;48.18;99352.91;79647;1298;3013067;-77
2023/08/10 10:47:38;;;;;;;7.70;2.90;;;;;;;28.94;48.73;99350.52;78397;1295;3069880;-73
2023/08/10 10:50:17;;;;;;;4.20;2.60;;;;;;;29.01;48.43;99341.86;79058;1296;3013205;-74
2023/08/10 10:52:55;;;;;;;8.30;2.80;;;;;;;29.09;47.71;99340.78;78509;1302;3051630;-74
2023/08/10 10:55:27;;;;;;;7.20;2.80;;;;;;;29.13;47.77;99333.68;78510;1298;3057613;-75
2023/08/10 10:57:54;;;;;;;4.80;2.90;;;;;;;29.27;47.55;99333.02;79587;1297;3011613;-75
2023/08/10 11:00:22;;;;;;;3.80;2.70;;;;;;;29.34;47.37;99327.03;80811;1295;3024898;-79
2023/08/10 11:02:49;;;;;;;10.90;2.70;;;;;;;29.35;47.42;99320.52;82080;1295;3012952;-78
2023/08/10 11:05:17;;;;;;;10.40;2.80;;;;;;;29.36;47.56;99314.45;82147;1295;3011671;-79
2023/08/10 11:07:49;;;;;;;4.60;2.70;;;;;;;29.40;47.05;99313.25;80874;1294;3069887;-76
2023/08/10 11:10:17;;;;;;;9.30;2.50;;;;;;;29.35;47.29;99309.46;82079;1295;3011102;-77
2023/08/10 11:12:48;;;;;;;7.10;3.00;;;;;;;29.26;47.47;99309.94;80843;1295;3056519;-78
2023/08/10 11:15:15;;;;;;;7.60;2.90;;;;;;;29.23;47.71;99316.90;82136;1295;3011283;-72
2023/08/10 11:17:48;;;;;;;8.30;3.10;;;;;;;29.20;49.09;99315.23;81559;1295;3011173;-74
2023/08/10 11:20:14;;;;;;;7.30;3.20;;;;;;;29.10;50.13;99309.48;82095;1295;3011383;-76
2023/08/10 11:22:52;;;;;;;13.30;3.40;;;;;;;29.02;51.39;99301.34;80818;1298;3052360;-69
2023/08/10 11:25:23;;;;;;;6.90;3.00;;;;;;;28.97;51.88;99290.98;80840;1295;3052642;-73
2023/08/10 11:27:51;;;;;;;8.70;3.00;;;;;;;28.90;51.38;99281.00;82063;1295;3011330;-74
2023/08/10 11:30:21;;;;;;;5.60;3.10;;;;;;;28.97;51.29;99278.71;80815;1294;3025834;-74
2023/08/10 11:32:52;;;;;;;5.30;3.20;;;;;;;29.17;51.18;99287.17;82068;1295;3011240;-77
2023/08/10 11:35:22;;;;;;;12.00;3.60;;;;;;;29.39;50.31;99279.17;80884;1294;3049432;-78
2023/08/10 11:37:49;;;;;;;11.60;3.40;;;;;;;29.44;50.54;99270.93;82067;1294;3011229;-71
2023/08/10 11:40:19;;;;;;;12.00;3.20;;;;;;;29.41;50.12;99271.90;81558;1295;3011616;-73
2023/08/10 11:42:52;;;;;;;11.00;3.10;;;;;;;29.38;49.98;99283.67;82127;1293;3012782;-75
2023/08/10 11:45:20;;;;;;;8.00;2.80;;;;;;;29.38;49.67;99283.71;80805;1295;3068137;-71
2023/08/10 11:47:58;;;;;;;10.10;3.00;;;;;;;29.39;49.47;99289.61;82049;1295;3012729;-71
2023/08/10 11:50:43;;;;;;;6.80;2.70;;;;;;;29.61;48.92;99298.80;80796;1295;3050598;-73
2023/08/10 11:53:15;;;;;;;5.90;2.90;;;;;;;29.88;48.07;99293.23;82086;1294;3012900;-77
2023/08/10 11:55:47;;;;;;;9.70;3.60;;;;;;;30.04;47.06;99288.45;80847;1294;3051632;-75
2023/08/10 11:58:14;;;;;;;12.00;3.20;;;;;;;30.20;46.77;99285.70;82112;1294;3011432;-76
2023/08/10 12:00:42;;;;;;;10.50;3.70;;;;;;;30.31;46.36;99282.85;80839;1295;3026150;-71
2023/08/10 12:03:37;;;;;;;11.50;3.70;;;;;;;30.24;46.46;99281.19;82080;1294;3018199;-74
2023/08/10 12:06:05;;;;;;;12.60;3.50;;;;;;;30.16;46.17;99287.45;80727;1295;3048732;-73
2023/08/10 12:08:35;;;;;;;8.60;3.40;;;;;;;30.17;46.46;99299.44;82128;1294;3018346;-76
2023/08/10 12:11:05;;;;;;;11.00;3.30;;;;;;;30.13;46.73;99312.14;81540;1295;3011296;-71
2023/08/10 12:13:32;;;;;;;11.40;3.50;;;;;;;30.15;46.72;99318.55;82097;1295;3013168;-73
2023/08/10 12:16:01;;;;;;;6.20;3.20;;;;;;;30.17;46.52;99319.54;82071;1295;3011520;-75
2023/08/10 12:18:29;;;;;;;8.90;3.60;;;;;;;30.15;46.85;99318.23;80825;1294;3050039;-72
2023/08/10 12:20:56;;;;;;;10.40;4.10;;;;;;;30.05;47.23;99324.45;82141;1294;3012352;-79
2023/08/10 12:23:23;;;;;;;7.70;3.60;;;;;;;29.91;47.39;99328.23;82110;1295;3011137;-75
2023/08/10 12:25:51;;;;;;;10.20;3.80;;;;;;;29.78;47.91;99338.75;80856;1294;3050231;-74